Terminal Aerodrome Forecast
Issued by NWS

Home | Current Version | Previous Version | Text Only | Print | Product List | Glossary On
Versions: 1 2 3 4 5 6 7 8 9 10 11 12 13 14 15 16 17
000
FTUS44 KLZK 291800 AAA
TAFHRO
TAF AMD
KHRO 291802Z 2918/3018 32010G20KT P6SM OVC015
     FM300400 34010KT P6SM SCT020
     FM301700 08004KT P6SM BKN250=

USA.gov is the U.S. government's official web portal to all federal, state and local government web resources and services.